createdAt,value
2022-08-10T00:00:12.520Z,19.10
2022-08-10T00:02:39.205Z,19.00
2022-08-10T00:05:06.331Z,19.10
2022-08-10T00:07:33.260Z,19.00
2022-08-10T00:10:00.203Z,18.90
2022-08-10T00:12:31.840Z,18.80
2022-08-10T00:15:53.077Z,18.80
2022-08-10T00:18:04.554Z,18.70
2022-08-10T00:20:31.229Z,18.60
2022-08-10T00:22:58.253Z,18.50
2022-08-10T00:25:25.054Z,18.50
2022-08-10T00:28:03.662Z,18.50
2022-08-10T00:30:31.087Z,18.40
2022-08-10T00:32:57.900Z,18.40
2022-08-10T00:35:24.622Z,18.50
2022-08-10T00:37:57.856Z,18.50
2022-08-10T00:40:37.133Z,18.50
2022-08-10T00:43:06.212Z,18.50
2022-08-10T00:45:33.817Z,18.50
2022-08-10T00:48:00.586Z,18.40
2022-08-10T00:50:27.705Z,18.40
2022-08-10T00:52:54.577Z,18.30
2022-08-10T00:55:21.446Z,20.80
2022-08-10T00:57:55.061Z,18.30
2022-08-10T01:00:23.317Z,18.30
2022-08-10T01:02:50.206Z,18.40
2022-08-10T01:05:17.182Z,18.40
2022-08-10T01:08:05.657Z,18.30
2022-08-10T01:10:38.287Z,18.30
2022-08-10T01:13:31.145Z,18.30
2022-08-10T01:16:19.970Z,18.20
2022-08-10T01:19:28.284Z,18.30
2022-08-10T01:21:57.206Z,18.30
2022-08-10T01:24:55.393Z,18.30
2022-08-10T01:27:51.683Z,18.20
2022-08-10T01:30:20.781Z,18.30
2022-08-10T01:33:11.613Z,18.30
2022-08-10T01:35:55.303Z,18.30
2022-08-10T01:38:31.975Z,18.30
2022-08-10T01:41:06.463Z,18.20
2022-08-10T01:43:39.092Z,18.30
2022-08-10T01:46:07.525Z,18.30
2022-08-10T01:48:43.059Z,18.30
2022-08-10T01:51:17.481Z,18.30
2022-08-10T01:53:58.669Z,18.20
2022-08-10T01:56:28.187Z,18.20
2022-08-10T01:59:24.592Z,18.20
2022-08-10T02:01:56.136Z,18.10
2022-08-10T02:04:25.667Z,18.10
2022-08-10T02:06:54.253Z,18.10
2022-08-10T02:09:26.122Z,18.00
2022-08-10T02:12:07.565Z,18.00
2022-08-10T02:15:10.525Z,18.00
2022-08-10T02:17:59.291Z,17.90
2022-08-10T02:20:32.206Z,17.80
2022-08-10T02:23:05.260Z,17.80
2022-08-10T02:25:40.143Z,17.80
2022-08-10T02:28:12.161Z,17.80
2022-08-10T02:30:57.664Z,17.80
2022-08-10T02:33:27.625Z,17.90
2022-08-10T02:35:56.161Z,17.90
2022-08-10T02:38:58.822Z,17.80
2022-08-10T02:45:03.527Z,17.80
2022-08-10T02:45:22.327Z,17.80
2022-08-10T02:47:51.072Z,17.80
2022-08-10T02:50:25.126Z,17.70
2022-08-10T02:53:06.961Z,17.70
2022-08-10T02:56:31.136Z,17.70
2022-08-10T02:59:25.418Z,17.60
2022-08-10T03:01:56.020Z,17.70
2022-08-10T03:04:55.156Z,17.60
2022-08-10T03:07:43.671Z,17.60
2022-08-10T03:10:16.420Z,17.60
2022-08-10T03:12:44.235Z,17.50
2022-08-10T03:15:15.903Z,17.50
2022-08-10T03:17:56.901Z,17.50
2022-08-10T03:20:38.024Z,17.40
2022-08-10T03:23:16.332Z,17.40
2022-08-10T03:25:53.520Z,17.50
2022-08-10T03:28:31.657Z,17.50
2022-08-10T03:30:59.953Z,17.40
2022-08-10T03:33:29.891Z,17.40
2022-08-10T03:36:41.691Z,17.40
2022-08-10T03:38:46.121Z,17.50
2022-08-10T03:41:16.350Z,17.40
2022-08-10T03:43:47.580Z,17.40
2022-08-10T03:46:18.207Z,17.30
2022-08-10T03:48:48.791Z,17.30
2022-08-10T03:51:21.585Z,17.30
2022-08-10T03:54:03.454Z,17.30
2022-08-10T03:56:34.356Z,17.30
2022-08-10T03:59:02.067Z,17.30
2022-08-10T04:02:43.757Z,17.30
2022-08-10T04:04:23.268Z,17.30
2022-08-10T04:06:56.492Z,17.30
2022-08-10T04:09:54.016Z,17.20
2022-08-10T04:12:20.673Z,17.20
2022-08-10T04:14:50.490Z,17.20
2022-08-10T04:18:03.324Z,17.10
2022-08-10T04:20:35.211Z,17.30
2022-08-10T04:23:06.652Z,17.30
2022-08-10T04:25:34.532Z,17.30
2022-08-10T04:28:01.674Z,17.30
2022-08-10T04:30:31.789Z,17.30
2022-08-10T04:32:59.946Z,17.30
2022-08-10T04:35:29.149Z,17.40
2022-08-10T04:37:58.108Z,17.40
2022-08-10T04:40:30.930Z,17.50
2022-08-10T04:43:12.491Z,17.40
2022-08-10T04:45:50.609Z,17.50
2022-08-10T04:48:42.967Z,17.60
2022-08-10T04:51:07.967Z,17.60
2022-08-10T04:54:04.631Z,17.60
2022-08-10T04:56:31.808Z,17.60
2022-08-10T04:58:59.833Z,17.80
2022-08-10T05:01:26.492Z,17.70
2022-08-10T05:04:36.167Z,17.70
2022-08-10T05:06:39.762Z,17.70
2022-08-10T05:09:06.545Z,17.70
2022-08-10T05:11:33.362Z,17.80
2022-08-10T05:14:00.225Z,17.80
2022-08-10T05:16:31.672Z,17.80
2022-08-10T05:18:58.890Z,17.90
2022-08-10T05:21:59.855Z,17.90
2022-08-10T05:24:12.300Z,17.90
2022-08-10T05:26:55.257Z,18.00
2022-08-10T05:29:25.603Z,18.00
2022-08-10T05:31:52.574Z,18.10
2022-08-10T05:34:21.671Z,18.10
2022-08-10T05:36:48.795Z,18.20
2022-08-10T05:39:16.149Z,18.20
2022-08-10T05:41:46.922Z,18.30
2022-08-10T05:44:15.470Z,18.40
2022-08-10T05:46:42.161Z,18.50
2022-08-10T05:49:08.843Z,18.60
2022-08-10T05:51:36.269Z,18.70
2022-08-10T05:54:06.504Z,18.80
2022-08-10T05:56:54.041Z,18.80
2022-08-10T06:00:10.875Z,18.90
2022-08-10T06:02:30.692Z,19.00
2022-08-10T06:05:08.407Z,19.10
2022-08-10T06:07:46.186Z,19.30
2022-08-10T06:10:28.552Z,19.20
2022-08-10T06:13:30.004Z,19.30
2022-08-10T06:16:01.497Z,19.30
2022-08-10T06:18:28.921Z,19.30
2022-08-10T06:20:56.266Z,19.30
2022-08-10T06:23:25.548Z,19.40
2022-08-10T06:26:10.503Z,19.50
2022-08-10T06:29:03.547Z,19.60
2022-08-10T06:31:48.433Z,19.80
2022-08-10T06:34:20.875Z,19.80
2022-08-10T06:36:48.625Z,19.90
2022-08-10T06:39:33.980Z,20.00
2022-08-10T06:42:22.869Z,20.10
2022-08-10T06:44:57.793Z,20.80
2022-08-10T06:47:29.557Z,20.40
2022-08-10T06:50:04.976Z,20.60
2022-08-10T06:52:37.003Z,20.60
2022-08-10T06:55:09.044Z,20.60
2022-08-10T06:57:37.877Z,20.60
2022-08-10T07:00:06.069Z,20.60
2022-08-10T07:02:58.471Z,20.60
2022-08-10T07:05:28.199Z,20.70
2022-08-10T07:07:59.109Z,20.80
2022-08-10T07:10:41.161Z,20.90
2022-08-10T07:13:15.792Z,21.10
2022-08-10T07:16:03.325Z,21.10
2022-08-10T07:18:32.370Z,21.10
2022-08-10T07:21:01.899Z,21.20
2022-08-10T07:23:57.162Z,21.30
2022-08-10T07:26:19.257Z,21.30
2022-08-10T07:28:48.463Z,21.40
2022-08-10T07:31:36.128Z,21.50
2022-08-10T07:34:07.236Z,21.50
2022-08-10T07:36:36.722Z,21.60
2022-08-10T07:39:05.881Z,21.60
2022-08-10T07:41:34.512Z,21.50
2022-08-10T07:44:04.258Z,21.60
2022-08-10T07:46:33.407Z,21.60
2022-08-10T07:49:18.919Z,21.70
2022-08-10T07:51:54.373Z,21.60
2022-08-10T07:54:23.833Z,21.60
2022-08-10T07:56:53.571Z,21.70
2022-08-10T07:59:30.190Z,21.70
2022-08-10T08:01:58.175Z,21.70
2022-08-10T08:04:25.342Z,21.80
2022-08-10T08:06:53.571Z,21.80
2022-08-10T08:09:21.918Z,21.80
2022-08-10T08:11:49.885Z,21.90
2022-08-10T08:14:17.214Z,22.00
2022-08-10T08:16:49.510Z,22.10
2022-08-10T08:19:37.512Z,22.20
2022-08-10T08:24:14.851Z,22.00
2022-08-10T08:24:56.310Z,22.10
2022-08-10T08:27:24.473Z,22.20
2022-08-10T08:29:52.279Z,22.10
2022-08-10T08:32:24.946Z,22.10
2022-08-10T08:34:58.663Z,22.10
2022-08-10T08:38:29.909Z,22.10
2022-08-10T08:40:24.762Z,22.30
2022-08-10T08:43:16.420Z,22.40
2022-08-10T08:46:18.309Z,22.40
2022-08-10T08:48:50.855Z,22.50
2022-08-10T08:52:09.736Z,22.60
2022-08-10T08:54:44.675Z,22.50
2022-08-10T08:57:49.599Z,22.60
2022-08-10T09:00:45.742Z,22.40
2022-08-10T09:03:44.023Z,22.40
2022-08-10T09:06:19.904Z,22.40
2022-08-10T09:09:05.061Z,22.40
2022-08-10T09:12:04.877Z,22.50
2022-08-10T09:14:49.232Z,22.70
2022-08-10T09:17:39.692Z,23.00
2022-08-10T09:20:27.971Z,23.00
2022-08-10T09:23:09.643Z,23.10
2022-08-10T09:25:39.037Z,23.00
2022-08-10T09:28:16.567Z,23.10
2022-08-10T09:31:22.047Z,23.10
2022-08-10T09:36:22.287Z,23.20
2022-08-10T09:37:23.756Z,23.20
2022-08-10T09:40:59.927Z,23.30
2022-08-10T09:43:25.938Z,23.30
2022-08-10T09:46:20.387Z,23.30
2022-08-10T09:48:50.410Z,23.30
2022-08-10T09:51:46.610Z,23.40
2022-08-10T09:54:35.915Z,23.30
2022-08-10T09:57:44.515Z,23.30
2022-08-10T10:00:15.175Z,23.50
2022-08-10T10:02:57.996Z,23.50
2022-08-10T10:05:30.962Z,23.70
2022-08-10T10:08:14.446Z,23.80
2022-08-10T10:11:04.195Z,23.90
2022-08-10T10:14:01.667Z,23.90
2022-08-10T10:16:36.974Z,23.70
2022-08-10T10:19:31.557Z,23.70
2022-08-10T10:22:27.660Z,23.80
2022-08-10T10:25:21.122Z,23.20
2022-08-10T10:28:23.442Z,24.00
2022-08-10T10:31:16.541Z,24.10
2022-08-10T10:33:54.287Z,24.10
2022-08-10T10:36:22.507Z,23.90
2022-08-10T10:38:49.848Z,24.10
2022-08-10T10:42:04.511Z,24.20
2022-08-10T10:44:31.519Z,24.30
2022-08-10T10:47:23.204Z,24.40
2022-08-10T10:50:05.646Z,24.50
2022-08-10T10:52:43.359Z,24.60
2022-08-10T10:55:25.842Z,24.60
2022-08-10T10:58:25.337Z,24.40
2022-08-10T11:01:21.921Z,24.20
2022-08-10T11:03:52.975Z,24.20
2022-08-10T11:06:47.263Z,24.20
2022-08-10T11:10:03.877Z,24.40
2022-08-10T11:12:46.915Z,24.70
2022-08-10T11:15:29.339Z,24.90
2022-08-10T11:18:05.833Z,24.90
2022-08-10T11:20:58.370Z,24.50
2022-08-10T11:23:36.418Z,24.30
2022-08-10T11:26:20.258Z,24.20
2022-08-10T11:28:53.711Z,24.00
2022-08-10T11:31:38.052Z,23.10
2022-08-10T11:34:47.495Z,24.30
2022-08-10T11:37:21.307Z,24.30
2022-08-10T11:40:04.621Z,24.40
2022-08-10T11:43:06.047Z,24.40
2022-08-10T11:45:36.696Z,24.50
2022-08-10T11:48:11.722Z,24.50
2022-08-10T11:51:03.257Z,24.40
2022-08-10T11:53:39.019Z,24.30
2022-08-10T11:56:12.589Z,24.20
2022-08-10T11:59:00.870Z,25.60
2022-08-10T12:01:31.770Z,24.40
2022-08-10T12:04:07.410Z,24.40
2022-08-10T12:06:55.184Z,24.50
2022-08-10T12:10:09.836Z,24.50
2022-08-10T12:12:11.960Z,24.60
2022-08-10T12:14:56.856Z,24.80
2022-08-10T12:17:35.550Z,24.90
2022-08-10T12:20:09.675Z,25.10
2022-08-10T12:22:41.997Z,25.20
2022-08-10T12:25:54.911Z,25.30
2022-08-10T12:28:51.886Z,25.30
2022-08-10T12:31:25.546Z,25.40
2022-08-10T12:34:11.667Z,25.60
2022-08-10T12:36:42.212Z,25.60
2022-08-10T12:39:32.286Z,25.70
2022-08-10T12:42:37.073Z,25.70
2022-08-10T12:45:08.584Z,25.70
2022-08-10T12:47:59.109Z,25.60
2022-08-10T12:50:57.806Z,25.70
2022-08-10T12:53:55.265Z,25.90
2022-08-10T12:56:33.898Z,25.70
2022-08-10T12:59:05.747Z,25.70
2022-08-10T13:02:06.551Z,25.90
2022-08-10T13:04:37.222Z,26.00
2022-08-10T13:07:06.506Z,26.20
2022-08-10T13:09:34.673Z,26.40
2022-08-10T13:12:44.678Z,26.60
2022-08-10T13:15:45.844Z,26.70
2022-08-10T13:18:06.265Z,26.50
2022-08-10T13:20:50.578Z,26.50
2022-08-10T13:23:21.971Z,26.40
2022-08-10T13:25:51.616Z,26.30
2022-08-10T13:28:37.620Z,26.30
2022-08-10T13:31:16.394Z,26.60
2022-08-10T13:34:40.260Z,26.60
2022-08-10T13:36:41.512Z,26.70
2022-08-10T13:39:08.885Z,26.80
2022-08-10T13:41:39.833Z,26.90
2022-08-10T13:44:09.607Z,26.90
2022-08-10T13:46:40.400Z,27.00
2022-08-10T13:49:09.472Z,27.20
2022-08-10T13:51:54.119Z,27.40
2022-08-10T13:54:36.157Z,27.60
2022-08-10T13:57:03.286Z,27.60
2022-08-10T14:00:34.568Z,27.80
2022-08-10T14:02:36.206Z,27.80
2022-08-10T14:05:04.818Z,27.80
2022-08-10T14:07:33.215Z,27.70
2022-08-10T14:10:09.547Z,27.70
2022-08-10T14:12:39.441Z,27.60
2022-08-10T14:15:18.250Z,27.50
2022-08-10T14:17:55.919Z,27.40
2022-08-10T14:20:27.992Z,27.50
2022-08-10T14:23:10.348Z,27.80
2022-08-10T14:25:51.198Z,28.00
2022-08-10T14:28:26.174Z,27.90
2022-08-10T14:31:01.414Z,29.60
2022-08-10T14:33:30.585Z,27.80
2022-08-10T14:36:19.561Z,27.90
2022-08-10T14:38:46.753Z,28.00
2022-08-10T14:42:01.592Z,28.00
2022-08-10T14:44:11.195Z,28.00
2022-08-10T14:46:47.197Z,28.20
2022-08-10T14:49:25.534Z,28.40
2022-08-10T14:52:01.169Z,28.40
2022-08-10T14:54:30.187Z,28.10
2022-08-10T14:57:10.650Z,28.00
2022-08-10T15:00:24.134Z,28.00
2022-08-10T15:02:38.846Z,28.00
2022-08-10T15:05:12.222Z,28.30
2022-08-10T15:07:40.724Z,28.50
2022-08-10T15:10:09.880Z,28.70
2022-08-10T15:12:39.752Z,28.80
2022-08-10T15:15:16.514Z,28.80
2022-08-10T15:17:52.920Z,28.70
2022-08-10T15:20:22.495Z,28.60
2022-08-10T15:22:55.788Z,28.90
2022-08-10T15:25:25.993Z,29.20
2022-08-10T15:28:05.127Z,29.40
2022-08-10T15:30:42.729Z,29.60
2022-08-10T15:34:03.271Z,29.60
2022-08-10T15:36:40.440Z,29.60
2022-08-10T15:40:24.088Z,28.90
2022-08-10T15:42:16.812Z,28.80
2022-08-10T15:44:45.491Z,28.80
2022-08-10T15:47:24.972Z,29.20
2022-08-10T15:50:11.451Z,29.50
2022-08-10T15:53:00.483Z,29.50
2022-08-10T15:55:42.726Z,29.20
2022-08-10T15:58:38.832Z,29.00
2022-08-10T16:02:12.406Z,29.20
2022-08-10T16:04:31.839Z,29.60
2022-08-10T16:07:12.504Z,30.30
2022-08-10T16:10:22.360Z,30.60
2022-08-10T16:13:00.130Z,31.60
2022-08-10T16:15:29.859Z,34.80
2022-08-10T16:18:08.560Z,37.00
2022-08-10T16:20:54.955Z,37.80
2022-08-10T16:23:31.356Z,37.70
2022-08-10T16:26:14.603Z,35.60
2022-08-10T16:28:55.023Z,32.40
2022-08-10T16:31:25.461Z,30.90
2022-08-10T16:33:55.741Z,29.80
2022-08-10T16:36:29.941Z,28.80
2022-08-10T16:38:57.567Z,28.50
2022-08-10T16:42:02.760Z,28.40
2022-08-10T16:44:17.666Z,28.40
2022-08-10T16:46:45.378Z,28.00
2022-08-10T16:49:16.566Z,27.70
2022-08-10T16:51:48.234Z,27.90
2022-08-10T16:54:20.642Z,28.40
2022-08-10T16:56:52.750Z,28.80
2022-08-10T16:59:24.247Z,29.50
2022-08-10T17:01:54.100Z,29.10
2022-08-10T17:04:23.722Z,28.30
2022-08-10T17:06:58.994Z,28.00
2022-08-10T17:09:35.105Z,27.80
2022-08-10T17:12:10.582Z,27.60
2022-08-10T17:14:42.250Z,27.40
2022-08-10T17:17:17.787Z,27.20
2022-08-10T17:19:45.214Z,27.50
2022-08-10T17:22:20.986Z,27.20
2022-08-10T17:24:55.500Z,27.00
2022-08-10T17:28:04.091Z,26.90
2022-08-10T17:30:24.120Z,26.80
2022-08-10T17:33:10.903Z,26.80
2022-08-10T17:35:38.908Z,26.70
2022-08-10T17:38:09.341Z,26.70
2022-08-10T17:40:52.675Z,26.70
2022-08-10T17:44:01.107Z,26.60
2022-08-10T17:46:12.132Z,28.10
2022-08-10T17:48:41.792Z,26.60
2022-08-10T17:51:12.692Z,26.60
2022-08-10T17:53:47.125Z,26.60
2022-08-10T17:56:16.016Z,26.50
2022-08-10T17:58:53.611Z,26.50
2022-08-10T18:01:40.312Z,26.40
2022-08-10T18:04:14.948Z,26.40
2022-08-10T18:06:42.857Z,26.40
2022-08-10T18:09:24.142Z,26.30
2022-08-10T18:11:59.080Z,26.20
2022-08-10T18:14:33.034Z,26.20
2022-08-10T18:17:10.050Z,26.10
2022-08-10T18:19:38.206Z,25.90
2022-08-10T18:22:06.236Z,25.80
2022-08-10T18:24:36.747Z,25.60
2022-08-10T18:27:05.060Z,25.50
2022-08-10T18:29:34.854Z,25.30
2022-08-10T18:32:03.125Z,25.30
2022-08-10T18:34:35.064Z,25.30
2022-08-10T18:37:06.411Z,25.10
2022-08-10T18:39:37.595Z,25.10
2022-08-10T18:42:16.899Z,25.30
2022-08-10T18:44:50.894Z,25.20
2022-08-10T18:47:56.107Z,25.10
2022-08-10T18:50:36.046Z,25.00
2022-08-10T18:53:11.870Z,24.80
2022-08-10T18:56:08.618Z,23.20
2022-08-10T18:58:39.211Z,24.70
2022-08-10T19:01:14.317Z,24.70
2022-08-10T19:04:06.275Z,24.70
2022-08-10T19:06:50.202Z,24.70
2022-08-10T19:09:46.347Z,24.70
2022-08-10T19:12:30.436Z,24.60
2022-08-10T19:15:29.537Z,24.50
2022-08-10T19:18:16.887Z,24.50
2022-08-10T19:21:12.572Z,24.40
2022-08-10T19:24:00.068Z,24.30
2022-08-10T19:26:45.097Z,24.20
2022-08-10T19:30:12.393Z,24.10
2022-08-10T19:32:44.144Z,24.00
2022-08-10T19:35:26.153Z,23.80
2022-08-10T19:38:16.470Z,23.80
2022-08-10T19:41:09.945Z,23.70
2022-08-10T19:44:00.628Z,23.60
2022-08-10T19:47:23.868Z,23.50
2022-08-10T19:50:03.766Z,23.50
2022-08-10T19:52:39.492Z,23.40
2022-08-10T19:55:17.464Z,23.20
2022-08-10T19:57:49.468Z,23.20
2022-08-10T20:00:22.898Z,23.30
2022-08-10T20:03:15.290Z,23.20
2022-08-10T20:06:12.983Z,23.20
2022-08-10T20:08:50.381Z,23.30
2022-08-10T20:11:45.268Z,23.50
2022-08-10T20:14:50.513Z,23.30
2022-08-10T20:17:29.316Z,23.20
2022-08-10T20:20:25.568Z,23.10
2022-08-10T20:23:04.330Z,22.90
2022-08-10T20:25:32.750Z,23.00
2022-08-10T20:28:12.080Z,22.90
2022-08-10T20:30:47.924Z,22.80
2022-08-10T20:33:34.580Z,22.90
2022-08-10T20:36:26.438Z,22.80
2022-08-10T20:39:14.198Z,22.70
2022-08-10T20:42:01.570Z,22.80
2022-08-10T20:44:39.729Z,22.90
2022-08-10T20:47:23.764Z,22.70
2022-08-10T20:50:23.743Z,22.70
2022-08-10T20:52:52.059Z,22.60
2022-08-10T20:55:22.270Z,22.50
2022-08-10T20:58:15.191Z,22.30
2022-08-10T21:01:06.050Z,22.30
2022-08-10T21:03:53.935Z,22.30
2022-08-10T21:07:04.108Z,22.10
2022-08-10T21:09:55.097Z,22.10
2022-08-10T21:12:54.227Z,22.00
2022-08-10T21:15:28.645Z,21.80
2022-08-10T21:18:20.543Z,21.70
2022-08-10T21:21:02.508Z,21.70
2022-08-10T21:23:38.054Z,21.80
2022-08-10T21:26:15.346Z,21.80
2022-08-10T21:29:11.299Z,21.90
2022-08-10T21:32:06.275Z,21.70
2022-08-10T21:34:41.263Z,21.60
2022-08-10T21:37:43.957Z,21.50
2022-08-10T21:40:34.683Z,21.50
2022-08-10T21:43:52.067Z,21.50
2022-08-10T21:47:02.639Z,21.60
2022-08-10T21:50:08.111Z,21.50
2022-08-10T21:53:04.214Z,21.70
2022-08-10T21:56:02.115Z,21.60
2022-08-10T21:58:55.838Z,21.70
2022-08-10T22:01:51.614Z,21.60
2022-08-10T22:04:40.223Z,21.50
2022-08-10T22:07:36.223Z,21.50
2022-08-10T22:10:25.649Z,21.70
2022-08-10T22:13:12.662Z,21.70
2022-08-10T22:16:10.839Z,21.70
2022-08-10T22:19:02.721Z,21.80
2022-08-10T22:21:57.406Z,21.80
2022-08-10T22:25:05.064Z,21.80
2022-08-10T22:28:02.289Z,21.80
2022-08-10T22:31:27.615Z,21.80
2022-08-10T22:34:12.061Z,21.70
2022-08-10T22:37:10.016Z,21.70
2022-08-10T22:40:31.594Z,21.70
2022-08-10T22:43:35.257Z,21.60
2022-08-10T22:46:25.600Z,21.50
2022-08-10T22:49:02.064Z,21.50
2022-08-10T22:51:39.681Z,21.40
2022-08-10T22:54:33.327Z,21.30
2022-08-10T22:57:20.112Z,21.30
2022-08-10T22:59:49.321Z,21.20
2022-08-10T23:02:34.856Z,21.20
2022-08-10T23:05:06.767Z,21.20
2022-08-10T23:07:36.738Z,21.10
2022-08-10T23:10:12.821Z,21.10
2022-08-10T23:12:45.073Z,21.10
2022-08-10T23:15:44.036Z,21.10
2022-08-10T23:18:34.425Z,21.10
2022-08-10T23:21:02.541Z,21.10
2022-08-10T23:23:38.386Z,21.00
2022-08-10T23:26:06.081Z,21.10
2022-08-10T23:28:38.567Z,21.00
2022-08-10T23:31:12.301Z,21.00
2022-08-10T23:33:40.815Z,21.00
2022-08-10T23:36:34.750Z,21.00
2022-08-10T23:39:26.067Z,21.00
2022-08-10T23:41:53.727Z,20.90
2022-08-10T23:44:23.565Z,20.90
2022-08-10T23:46:51.326Z,20.80
2022-08-10T23:49:20.008Z,20.80
2022-08-10T23:51:54.770Z,20.70
2022-08-10T23:54:24.876Z,20.70
2022-08-10T23:57:00.935Z,20.70
2022-08-10T23:59:31.751Z,20.70
